sensor_id;sensor_type;location;lat;lon;timestamp;P1;durP1;ratioP1;P2;durP2;ratioP2
47167;SDS011;32931;47.778;17.806;2023-02-18T00:00:14;4.75;;;1.50;;
47167;SDS011;32931;47.778;17.806;2023-02-18T00:02:43;5.65;;;1.25;;
47167;SDS011;32931;47.778;17.806;2023-02-18T00:05:10;4.70;;;1.20;;
47167;SDS011;32931;47.778;17.806;2023-02-18T00:07:37;6.72;;;1.30;;
47167;SDS011;32931;47.778;17.806;2023-02-18T00:10:06;2.03;;;1.25;;
47167;SDS011;32931;47.778;17.806;2023-02-18T00:12:34;6.05;;;1.20;;
47167;SDS011;32931;47.778;17.806;2023-02-18T00:15:00;3.47;;;1.45;;
47167;SDS011;32931;47.778;17.806;2023-02-18T00:17:27;2.92;;;1.30;;
47167;SDS011;32931;47.778;17.806;2023-02-18T00:19:54;4.88;;;1.35;;
47167;SDS011;32931;47.778;17.806;2023-02-18T00:22:21;3.63;;;1.27;;
47167;SDS011;32931;47.778;17.806;2023-02-18T00:24:48;3.65;;;1.40;;
47167;SDS011;32931;47.778;17.806;2023-02-18T00:27:14;3.08;;;1.25;;
47167;SDS011;32931;47.778;17.806;2023-02-18T00:29:41;5.50;;;1.40;;
47167;SDS011;32931;47.778;17.806;2023-02-18T00:32:07;1.77;;;1.02;;
47167;SDS011;32931;47.778;17.806;2023-02-18T00:34:33;4.15;;;1.30;;
47167;SDS011;32931;47.778;17.806;2023-02-18T00:36:59;3.33;;;1.30;;
47167;SDS011;32931;47.778;17.806;2023-02-18T00:39:25;3.53;;;1.17;;
47167;SDS011;32931;47.778;17.806;2023-02-18T00:41:52;2.83;;;1.17;;
47167;SDS011;32931;47.778;17.806;2023-02-18T00:44:18;3.45;;;1.13;;
47167;SDS011;32931;47.778;17.806;2023-02-18T00:46:44;7.65;;;0.90;;
47167;SDS011;32931;47.778;17.806;2023-02-18T00:49:12;4.28;;;1.15;;
47167;SDS011;32931;47.778;17.806;2023-02-18T00:51:38;3.50;;;1.05;;
47167;SDS011;32931;47.778;17.806;2023-02-18T00:54:05;3.80;;;1.00;;
47167;SDS011;32931;47.778;17.806;2023-02-18T00:56:31;2.45;;;0.85;;
47167;SDS011;32931;47.778;17.806;2023-02-18T00:58:57;6.18;;;1.15;;
47167;SDS011;32931;47.778;17.806;2023-02-18T01:01:23;2.22;;;0.90;;
47167;SDS011;32931;47.778;17.806;2023-02-18T01:03:50;2.38;;;0.98;;
47167;SDS011;32931;47.778;17.806;2023-02-18T01:06:16;2.17;;;0.88;;
47167;SDS011;32931;47.778;17.806;2023-02-18T01:08:42;3.33;;;1.00;;
47167;SDS011;32931;47.778;17.806;2023-02-18T01:11:10;3.70;;;1.02;;
47167;SDS011;32931;47.778;17.806;2023-02-18T01:13:36;3.10;;;1.13;;
47167;SDS011;32931;47.778;17.806;2023-02-18T01:16:03;2.30;;;1.10;;
47167;SDS011;32931;47.778;17.806;2023-02-18T01:18:29;2.05;;;1.00;;
47167;SDS011;32931;47.778;17.806;2023-02-18T01:20:56;1.98;;;0.90;;
47167;SDS011;32931;47.778;17.806;2023-02-18T01:23:22;1.20;;;0.90;;
47167;SDS011;32931;47.778;17.806;2023-02-18T01:25:49;1.92;;;0.90;;
47167;SDS011;32931;47.778;17.806;2023-02-18T01:28:16;2.75;;;1.20;;
47167;SDS011;32931;47.778;17.806;2023-02-18T01:30:43;2.10;;;0.77;;
47167;SDS011;32931;47.778;17.806;2023-02-18T01:33:10;1.55;;;1.08;;
47167;SDS011;32931;47.778;17.806;2023-02-18T01:35:37;2.65;;;0.80;;
47167;SDS011;32931;47.778;17.806;2023-02-18T01:38:04;3.65;;;0.93;;
47167;SDS011;32931;47.778;17.806;2023-02-18T01:40:31;2.92;;;0.90;;
47167;SDS011;32931;47.778;17.806;2023-02-18T01:42:57;2.15;;;0.90;;
47167;SDS011;32931;47.778;17.806;2023-02-18T01:48:21;1.40;;;0.80;;
47167;SDS011;32931;47.778;17.806;2023-02-18T01:50:56;2.38;;;0.80;;
47167;SDS011;32931;47.778;17.806;2023-02-18T01:53:30;2.85;;;0.93;;
47167;SDS011;32931;47.778;17.806;2023-02-18T01:56:27;2.88;;;0.85;;
47167;SDS011;32931;47.778;17.806;2023-02-18T01:58:57;3.50;;;1.10;;
47167;SDS011;32931;47.778;17.806;2023-02-18T02:01:26;4.38;;;1.02;;
47167;SDS011;32931;47.778;17.806;2023-02-18T02:03:53;2.05;;;1.00;;
47167;SDS011;32931;47.778;17.806;2023-02-18T02:06:20;3.53;;;1.33;;
47167;SDS011;32931;47.778;17.806;2023-02-18T02:08:48;3.28;;;0.98;;
47167;SDS011;32931;47.778;17.806;2023-02-18T02:22:16;3.50;;;0.90;;
47167;SDS011;32931;47.778;17.806;2023-02-18T02:27:56;3.45;;;0.77;;
47167;SDS011;32931;47.778;17.806;2023-02-18T02:33:03;1.77;;;1.00;;
47167;SDS011;32931;47.778;17.806;2023-02-18T02:35:44;2.72;;;1.00;;
47167;SDS011;32931;47.778;17.806;2023-02-18T02:38:25;2.85;;;0.90;;
47167;SDS011;32931;47.778;17.806;2023-02-18T02:44:01;6.05;;;0.93;;
47167;SDS011;32931;47.778;17.806;2023-02-18T02:46:43;1.40;;;0.80;;
47167;SDS011;32931;47.778;17.806;2023-02-18T02:52:07;1.70;;;1.02;;
47167;SDS011;32931;47.778;17.806;2023-02-18T02:54:41;1.90;;;0.82;;
47167;SDS011;32931;47.778;17.806;2023-02-18T02:59:44;2.58;;;1.10;;
47167;SDS011;32931;47.778;17.806;2023-02-18T03:05:14;6.15;;;1.10;;
47167;SDS011;32931;47.778;17.806;2023-02-18T03:10:29;2.53;;;1.00;;
47167;SDS011;32931;47.778;17.806;2023-02-18T03:13:25;1.25;;;0.65;;
47167;SDS011;32931;47.778;17.806;2023-02-18T03:15:58;2.72;;;0.85;;
47167;SDS011;32931;47.778;17.806;2023-02-18T03:18:50;1.65;;;0.82;;
47167;SDS011;32931;47.778;17.806;2023-02-18T03:21:31;2.17;;;1.00;;
47167;SDS011;32931;47.778;17.806;2023-02-18T03:24:07;2.30;;;0.90;;
47167;SDS011;32931;47.778;17.806;2023-02-18T03:26:41;3.28;;;0.93;;
47167;SDS011;32931;47.778;17.806;2023-02-18T03:29:15;1.42;;;0.73;;
47167;SDS011;32931;47.778;17.806;2023-02-18T03:31:44;2.03;;;0.90;;
47167;SDS011;32931;47.778;17.806;2023-02-18T03:34:15;2.35;;;0.98;;
47167;SDS011;32931;47.778;17.806;2023-02-18T03:36:45;2.85;;;1.00;;
47167;SDS011;32931;47.778;17.806;2023-02-18T03:39:15;2.10;;;0.93;;
47167;SDS011;32931;47.778;17.806;2023-02-18T03:41:43;2.42;;;0.90;;
47167;SDS011;32931;47.778;17.806;2023-02-18T03:44:09;5.55;;;0.80;;
47167;SDS011;32931;47.778;17.806;2023-02-18T03:46:37;2.40;;;1.00;;
47167;SDS011;32931;47.778;17.806;2023-02-18T03:49:05;2.42;;;1.08;;
47167;SDS011;32931;47.778;17.806;2023-02-18T03:51:31;2.83;;;0.90;;
47167;SDS011;32931;47.778;17.806;2023-02-18T03:53:57;2.17;;;1.00;;
47167;SDS011;32931;47.778;17.806;2023-02-18T03:56:23;3.90;;;1.02;;
47167;SDS011;32931;47.778;17.806;2023-02-18T03:58:50;2.13;;;0.90;;
47167;SDS011;32931;47.778;17.806;2023-02-18T04:01:16;1.55;;;1.05;;
47167;SDS011;32931;47.778;17.806;2023-02-18T04:03:42;3.25;;;1.00;;
47167;SDS011;32931;47.778;17.806;2023-02-18T04:06:08;5.60;;;1.10;;
47167;SDS011;32931;47.778;17.806;2023-02-18T04:08:35;1.67;;;1.00;;
47167;SDS011;32931;47.778;17.806;2023-02-18T04:11:01;2.47;;;1.17;;
47167;SDS011;32931;47.778;17.806;2023-02-18T04:13:29;3.28;;;1.08;;
47167;SDS011;32931;47.778;17.806;2023-02-18T04:15:55;1.85;;;1.00;;
47167;SDS011;32931;47.778;17.806;2023-02-18T04:18:21;2.83;;;0.90;;
47167;SDS011;32931;47.778;17.806;2023-02-18T04:20:48;1.42;;;0.90;;
47167;SDS011;32931;47.778;17.806;2023-02-18T04:23:14;4.00;;;1.02;;
47167;SDS011;32931;47.778;17.806;2023-02-18T04:25:40;3.25;;;1.00;;
47167;SDS011;32931;47.778;17.806;2023-02-18T04:28:06;3.35;;;1.23;;
47167;SDS011;32931;47.778;17.806;2023-02-18T04:30:35;1.55;;;1.02;;
47167;SDS011;32931;47.778;17.806;2023-02-18T04:33:01;1.90;;;1.10;;
47167;SDS011;32931;47.778;17.806;2023-02-18T04:35:28;2.00;;;1.05;;
47167;SDS011;32931;47.778;17.806;2023-02-18T04:37:54;1.65;;;1.10;;
47167;SDS011;32931;47.778;17.806;2023-02-18T04:40:20;3.42;;;1.15;;
47167;SDS011;32931;47.778;17.806;2023-02-18T04:42:46;3.53;;;1.17;;
47167;SDS011;32931;47.778;17.806;2023-02-18T04:45:12;2.15;;;1.17;;
47167;SDS011;32931;47.778;17.806;2023-02-18T04:47:38;3.40;;;1.17;;
47167;SDS011;32931;47.778;17.806;2023-02-18T04:50:05;3.22;;;1.13;;
47167;SDS011;32931;47.778;17.806;2023-02-18T04:52:31;2.97;;;1.30;;
47167;SDS011;32931;47.778;17.806;2023-02-18T04:54:57;3.08;;;1.30;;
47167;SDS011;32931;47.778;17.806;2023-02-18T04:57:24;3.67;;;1.25;;
47167;SDS011;32931;47.778;17.806;2023-02-18T04:59:50;2.83;;;1.25;;
47167;SDS011;32931;47.778;17.806;2023-02-18T05:02:16;2.60;;;1.35;;
47167;SDS011;32931;47.778;17.806;2023-02-18T05:04:42;3.70;;;1.30;;
47167;SDS011;32931;47.778;17.806;2023-02-18T05:07:08;3.08;;;1.20;;
47167;SDS011;32931;47.778;17.806;2023-02-18T05:09:34;2.30;;;1.20;;
47167;SDS011;32931;47.778;17.806;2023-02-18T05:12:01;3.60;;;1.30;;
47167;SDS011;32931;47.778;17.806;2023-02-18T05:14:27;2.75;;;1.42;;
47167;SDS011;32931;47.778;17.806;2023-02-18T05:16:53;2.95;;;1.55;;
47167;SDS011;32931;47.778;17.806;2023-02-18T05:19:19;2.55;;;1.23;;
47167;SDS011;32931;47.778;17.806;2023-02-18T05:21:45;3.90;;;1.52;;
47167;SDS011;32931;47.778;17.806;2023-02-18T05:24:11;3.38;;;1.30;;
47167;SDS011;32931;47.778;17.806;2023-02-18T05:26:38;3.40;;;1.50;;
47167;SDS011;32931;47.778;17.806;2023-02-18T05:29:04;3.47;;;1.48;;
47167;SDS011;32931;47.778;17.806;2023-02-18T05:31:30;3.67;;;1.90;;
47167;SDS011;32931;47.778;17.806;2023-02-18T05:33:56;2.42;;;1.67;;
47167;SDS011;32931;47.778;17.806;2023-02-18T05:36:22;6.00;;;1.88;;
47167;SDS011;32931;47.778;17.806;2023-02-18T05:38:49;3.63;;;1.90;;
47167;SDS011;32931;47.778;17.806;2023-02-18T05:41:15;3.10;;;1.92;;
47167;SDS011;32931;47.778;17.806;2023-02-18T05:43:41;2.92;;;1.90;;
47167;SDS011;32931;47.778;17.806;2023-02-18T05:46:26;3.08;;;1.83;;
47167;SDS011;32931;47.778;17.806;2023-02-18T05:48:52;6.05;;;2.10;;
47167;SDS011;32931;47.778;17.806;2023-02-18T05:51:18;4.32;;;2.13;;
47167;SDS011;32931;47.778;17.806;2023-02-18T05:53:44;2.40;;;1.95;;
47167;SDS011;32931;47.778;17.806;2023-02-18T05:56:10;4.57;;;1.70;;
47167;SDS011;32931;47.778;17.806;2023-02-18T05:58:36;5.75;;;1.70;;
47167;SDS011;32931;47.778;17.806;2023-02-18T06:01:02;3.47;;;1.60;;
47167;SDS011;32931;47.778;17.806;2023-02-18T06:03:29;2.28;;;1.48;;
47167;SDS011;32931;47.778;17.806;2023-02-18T06:05:55;2.58;;;1.90;;
47167;SDS011;32931;47.778;17.806;2023-02-18T06:08:21;3.92;;;1.70;;
47167;SDS011;32931;47.778;17.806;2023-02-18T06:10:47;2.47;;;1.88;;
47167;SDS011;32931;47.778;17.806;2023-02-18T06:13:13;2.22;;;1.90;;
47167;SDS011;32931;47.778;17.806;2023-02-18T06:15:40;4.07;;;1.90;;
47167;SDS011;32931;47.778;17.806;2023-02-18T06:18:06;3.55;;;2.00;;
47167;SDS011;32931;47.778;17.806;2023-02-18T06:20:32;2.50;;;1.90;;
47167;SDS011;32931;47.778;17.806;2023-02-18T06:22:58;2.33;;;1.90;;
47167;SDS011;32931;47.778;17.806;2023-02-18T06:25:24;2.63;;;1.77;;
47167;SDS011;32931;47.778;17.806;2023-02-18T06:27:50;2.72;;;1.55;;
47167;SDS011;32931;47.778;17.806;2023-02-18T06:30:17;2.28;;;1.83;;
47167;SDS011;32931;47.778;17.806;2023-02-18T06:32:43;3.08;;;1.80;;
47167;SDS011;32931;47.778;17.806;2023-02-18T06:35:09;1.67;;;1.40;;
47167;SDS011;32931;47.778;17.806;2023-02-18T06:37:35;2.42;;;1.60;;
47167;SDS011;32931;47.778;17.806;2023-02-18T06:40:01;2.40;;;1.30;;
47167;SDS011;32931;47.778;17.806;2023-02-18T06:42:28;2.63;;;1.60;;
47167;SDS011;32931;47.778;17.806;2023-02-18T06:44:54;1.17;;;1.00;;
47167;SDS011;32931;47.778;17.806;2023-02-18T06:47:20;5.80;;;1.20;;
47167;SDS011;32931;47.778;17.806;2023-02-18T06:49:46;1.48;;;1.10;;
47167;SDS011;32931;47.778;17.806;2023-02-18T06:52:13;2.45;;;1.10;;
47167;SDS011;32931;47.778;17.806;2023-02-18T06:54:39;1.65;;;1.20;;
47167;SDS011;32931;47.778;17.806;2023-02-18T06:57:05;2.35;;;1.33;;
47167;SDS011;32931;47.778;17.806;2023-02-18T06:59:32;1.20;;;1.10;;
47167;SDS011;32931;47.778;17.806;2023-02-18T07:01:58;2.63;;;1.63;;
47167;SDS011;32931;47.778;17.806;2023-02-18T07:04:24;2.70;;;1.60;;
47167;SDS011;32931;47.778;17.806;2023-02-18T07:06:50;2.53;;;1.58;;
47167;SDS011;32931;47.778;17.806;2023-02-18T07:09:16;2.38;;;1.80;;
47167;SDS011;32931;47.778;17.806;2023-02-18T07:11:43;2.67;;;1.70;;
47167;SDS011;32931;47.778;17.806;2023-02-18T07:14:09;2.13;;;1.52;;
47167;SDS011;32931;47.778;17.806;2023-02-18T07:16:35;3.67;;;1.88;;
47167;SDS011;32931;47.778;17.806;2023-02-18T07:19:01;2.35;;;1.70;;
47167;SDS011;32931;47.778;17.806;2023-02-18T07:21:28;2.78;;;1.83;;
47167;SDS011;32931;47.778;17.806;2023-02-18T07:23:54;2.00;;;1.70;;
47167;SDS011;32931;47.778;17.806;2023-02-18T07:26:20;2.28;;;1.83;;
47167;SDS011;32931;47.778;17.806;2023-02-18T07:28:46;3.05;;;1.98;;
47167;SDS011;32931;47.778;17.806;2023-02-18T07:31:12;2.42;;;1.80;;
47167;SDS011;32931;47.778;17.806;2023-02-18T07:33:38;3.15;;;1.92;;
47167;SDS011;32931;47.778;17.806;2023-02-18T07:36:05;5.15;;;1.75;;
47167;SDS011;32931;47.778;17.806;2023-02-18T07:38:31;3.78;;;1.90;;
47167;SDS011;32931;47.778;17.806;2023-02-18T07:40:58;6.05;;;2.10;;
47167;SDS011;32931;47.778;17.806;2023-02-18T07:43:25;4.38;;;2.22;;
47167;SDS011;32931;47.778;17.806;2023-02-18T07:45:51;2.95;;;2.08;;
47167;SDS011;32931;47.778;17.806;2023-02-18T07:48:17;4.82;;;2.30;;
47167;SDS011;32931;47.778;17.806;2023-02-18T07:50:43;3.00;;;2.20;;
47167;SDS011;32931;47.778;17.806;2023-02-18T07:53:11;4.18;;;2.20;;
47167;SDS011;32931;47.778;17.806;2023-02-18T07:55:38;3.33;;;2.25;;
47167;SDS011;32931;47.778;17.806;2023-02-18T07:58:21;2.70;;;1.95;;
47167;SDS011;32931;47.778;17.806;2023-02-18T08:00:48;2.97;;;2.47;;
47167;SDS011;32931;47.778;17.806;2023-02-18T08:03:15;6.68;;;2.78;;
47167;SDS011;32931;47.778;17.806;2023-02-18T08:05:42;4.63;;;3.28;;
47167;SDS011;32931;47.778;17.806;2023-02-18T08:08:12;5.80;;;4.18;;
47167;SDS011;32931;47.778;17.806;2023-02-18T08:10:40;3.50;;;2.22;;
47167;SDS011;32931;47.778;17.806;2023-02-18T08:13:07;2.83;;;2.35;;
47167;SDS011;32931;47.778;17.806;2023-02-18T08:15:34;3.15;;;2.38;;
47167;SDS011;32931;47.778;17.806;2023-02-18T08:18:01;3.97;;;2.38;;
47167;SDS011;32931;47.778;17.806;2023-02-18T08:20:27;2.80;;;2.40;;
47167;SDS011;32931;47.778;17.806;2023-02-18T08:22:53;3.13;;;2.55;;
47167;SDS011;32931;47.778;17.806;2023-02-18T08:25:20;4.25;;;2.67;;
47167;SDS011;32931;47.778;17.806;2023-02-18T08:27:46;3.55;;;2.80;;
47167;SDS011;32931;47.778;17.806;2023-02-18T08:30:12;3.92;;;2.85;;
47167;SDS011;32931;47.778;17.806;2023-02-18T08:32:38;4.05;;;2.72;;
47167;SDS011;32931;47.778;17.806;2023-02-18T08:35:05;3.00;;;2.38;;
47167;SDS011;32931;47.778;17.806;2023-02-18T08:37:32;5.88;;;2.20;;
47167;SDS011;32931;47.778;17.806;2023-02-18T08:39:58;2.83;;;2.00;;
47167;SDS011;32931;47.778;17.806;2023-02-18T08:42:26;2.95;;;2.03;;
47167;SDS011;32931;47.778;17.806;2023-02-18T08:44:52;2.97;;;2.13;;
47167;SDS011;32931;47.778;17.806;2023-02-18T08:47:18;6.85;;;1.90;;
47167;SDS011;32931;47.778;17.806;2023-02-18T08:49:45;3.17;;;2.20;;
47167;SDS011;32931;47.778;17.806;2023-02-18T08:52:11;3.92;;;1.75;;
47167;SDS011;32931;47.778;17.806;2023-02-18T08:54:37;3.35;;;1.85;;
47167;SDS011;32931;47.778;17.806;2023-02-18T08:57:03;4.75;;;1.60;;
47167;SDS011;32931;47.778;17.806;2023-02-18T08:59:29;4.28;;;1.60;;
47167;SDS011;32931;47.778;17.806;2023-02-18T09:01:55;4.35;;;1.65;;
47167;SDS011;32931;47.778;17.806;2023-02-18T09:04:21;2.65;;;1.50;;
47167;SDS011;32931;47.778;17.806;2023-02-18T09:06:48;2.67;;;1.50;;
47167;SDS011;32931;47.778;17.806;2023-02-18T09:09:15;5.07;;;2.00;;
47167;SDS011;32931;47.778;17.806;2023-02-18T09:11:42;5.18;;;1.30;;
47167;SDS011;32931;47.778;17.806;2023-02-18T09:14:09;2.03;;;1.20;;
47167;SDS011;32931;47.778;17.806;2023-02-18T09:16:36;4.72;;;1.33;;
47167;SDS011;32931;47.778;17.806;2023-02-18T09:19:04;3.00;;;1.13;;
47167;SDS011;32931;47.778;17.806;2023-02-18T09:21:30;1.92;;;1.20;;
47167;SDS011;32931;47.778;17.806;2023-02-18T09:23:57;2.25;;;1.17;;
47167;SDS011;32931;47.778;17.806;2023-02-18T09:26:24;1.58;;;0.85;;
47167;SDS011;32931;47.778;17.806;2023-02-18T09:28:53;1.45;;;0.88;;
47167;SDS011;32931;47.778;17.806;2023-02-18T09:31:20;1.63;;;0.82;;
47167;SDS011;32931;47.778;17.806;2023-02-18T09:33:58;2.88;;;1.20;;
47167;SDS011;32931;47.778;17.806;2023-02-18T09:36:26;3.03;;;1.00;;
47167;SDS011;32931;47.778;17.806;2023-02-18T09:38:53;2.85;;;0.95;;
47167;SDS011;32931;47.778;17.806;2023-02-18T09:43:47;2.15;;;1.10;;
47167;SDS011;32931;47.778;17.806;2023-02-18T09:46:18;3.55;;;1.20;;
47167;SDS011;32931;47.778;17.806;2023-02-18T09:48:57;3.28;;;1.00;;
47167;SDS011;32931;47.778;17.806;2023-02-18T09:51:26;2.00;;;0.90;;
47167;SDS011;32931;47.778;17.806;2023-02-18T09:53:53;2.05;;;1.23;;
47167;SDS011;32931;47.778;17.806;2023-02-18T09:56:20;1.90;;;1.00;;
47167;SDS011;32931;47.778;17.806;2023-02-18T09:58:52;1.40;;;1.10;;
47167;SDS011;32931;47.778;17.806;2023-02-18T10:03:57;1.50;;;1.00;;
47167;SDS011;32931;47.778;17.806;2023-02-18T10:06:32;3.05;;;1.30;;
47167;SDS011;32931;47.778;17.806;2023-02-18T10:09:01;1.92;;;1.17;;
47167;SDS011;32931;47.778;17.806;2023-02-18T10:11:32;1.20;;;0.77;;
47167;SDS011;32931;47.778;17.806;2023-02-18T10:13:59;2.08;;;1.10;;
47167;SDS011;32931;47.778;17.806;2023-02-18T10:16:27;1.50;;;1.02;;
47167;SDS011;32931;47.778;17.806;2023-02-18T10:18:58;1.63;;;1.10;;
47167;SDS011;32931;47.778;17.806;2023-02-18T10:21:29;3.22;;;1.00;;
47167;SDS011;32931;47.778;17.806;2023-02-18T10:26:58;2.45;;;0.90;;
47167;SDS011;32931;47.778;17.806;2023-02-18T10:29:25;2.15;;;0.80;;
47167;SDS011;32931;47.778;17.806;2023-02-18T10:31:56;3.38;;;0.77;;
47167;SDS011;32931;47.778;17.806;2023-02-18T10:34:51;1.20;;;0.70;;
47167;SDS011;32931;47.778;17.806;2023-02-18T10:40:34;2.80;;;0.90;;
47167;SDS011;32931;47.778;17.806;2023-02-18T10:48:21;3.08;;;1.08;;
47167;SDS011;32931;47.778;17.806;2023-02-18T10:51:22;2.25;;;0.90;;
47167;SDS011;32931;47.778;17.806;2023-02-18T10:53:52;3.47;;;0.75;;
47167;SDS011;32931;47.778;17.806;2023-02-18T10:56:40;1.70;;;0.70;;
47167;SDS011;32931;47.778;17.806;2023-02-18T10:59:20;0.80;;;0.50;;
47167;SDS011;32931;47.778;17.806;2023-02-18T11:01:55;2.35;;;0.73;;
47167;SDS011;32931;47.778;17.806;2023-02-18T11:04:36;1.65;;;0.60;;
47167;SDS011;32931;47.778;17.806;2023-02-18T11:07:05;1.42;;;0.70;;
47167;SDS011;32931;47.778;17.806;2023-02-18T11:09:39;1.23;;;0.50;;
47167;SDS011;32931;47.778;17.806;2023-02-18T11:15:34;1.17;;;0.60;;
47167;SDS011;32931;47.778;17.806;2023-02-18T11:17:35;1.05;;;0.63;;
47167;SDS011;32931;47.778;17.806;2023-02-18T11:25:37;1.70;;;0.60;;
47167;SDS011;32931;47.778;17.806;2023-02-18T11:28:06;1.83;;;0.50;;
47167;SDS011;32931;47.778;17.806;2023-02-18T11:30:53;1.23;;;0.75;;
47167;SDS011;32931;47.778;17.806;2023-02-18T11:33:29;4.60;;;0.77;;
47167;SDS011;32931;47.778;17.806;2023-02-18T11:36:21;4.97;;;0.60;;
47167;SDS011;32931;47.778;17.806;2023-02-18T11:39:00;1.23;;;0.65;;
47167;SDS011;32931;47.778;17.806;2023-02-18T11:41:31;2.35;;;0.65;;
47167;SDS011;32931;47.778;17.806;2023-02-18T11:44:03;1.00;;;0.60;;
47167;SDS011;32931;47.778;17.806;2023-02-18T11:46:32;0.30;;;0.30;;
47167;SDS011;32931;47.778;17.806;2023-02-18T11:49:10;0.88;;;0.40;;
47167;SDS011;32931;47.778;17.806;2023-02-18T11:51:45;1.10;;;0.50;;
47167;SDS011;32931;47.778;17.806;2023-02-18T11:54:20;1.55;;;0.50;;
47167;SDS011;32931;47.778;17.806;2023-02-18T11:59:26;1.05;;;0.60;;
47167;SDS011;32931;47.778;17.806;2023-02-18T12:04:29;1.33;;;0.68;;
47167;SDS011;32931;47.778;17.806;2023-02-18T12:07:16;0.50;;;0.35;;
47167;SDS011;32931;47.778;17.806;2023-02-18T12:10:02;1.10;;;0.73;;
47167;SDS011;32931;47.778;17.806;2023-02-18T12:12:57;1.05;;;0.50;;
47167;SDS011;32931;47.778;17.806;2023-02-18T12:15:38;0.63;;;0.50;;
47167;SDS011;32931;47.778;17.806;2023-02-18T12:36:48;0.77;;;0.50;;
47167;SDS011;32931;47.778;17.806;2023-02-18T12:39:25;0.50;;;0.40;;
47167;SDS011;32931;47.778;17.806;2023-02-18T12:42:03;0.80;;;0.50;;
47167;SDS011;32931;47.778;17.806;2023-02-18T12:57:53;1.13;;;0.50;;
47167;SDS011;32931;47.778;17.806;2023-02-18T13:08:35;0.82;;;0.43;;
47167;SDS011;32931;47.778;17.806;2023-02-18T13:17:10;1.10;;;0.68;;
47167;SDS011;32931;47.778;17.806;2023-02-18T13:22:07;0.85;;;0.60;;
47167;SDS011;32931;47.778;17.806;2023-02-18T13:24:38;1.95;;;0.52;;
47167;SDS011;32931;47.778;17.806;2023-02-18T13:27:21;2.58;;;0.70;;
47167;SDS011;32931;47.778;17.806;2023-02-18T13:38:15;1.40;;;0.45;;
47167;SDS011;32931;47.778;17.806;2023-02-18T13:40:35;0.65;;;0.50;;
47167;SDS011;32931;47.778;17.806;2023-02-18T13:43:19;1.65;;;0.32;;
47167;SDS011;32931;47.778;17.806;2023-02-18T13:46:10;0.85;;;0.40;;
47167;SDS011;32931;47.778;17.806;2023-02-18T13:48:44;2.65;;;0.43;;
47167;SDS011;32931;47.778;17.806;2023-02-18T13:54:22;1.30;;;0.60;;
47167;SDS011;32931;47.778;17.806;2023-02-18T13:56:54;3.75;;;0.75;;
47167;SDS011;32931;47.778;17.806;2023-02-18T14:02:28;1.75;;;0.70;;
47167;SDS011;32931;47.778;17.806;2023-02-18T14:10:01;2.28;;;0.70;;
47167;SDS011;32931;47.778;17.806;2023-02-18T14:28:43;0.88;;;0.50;;
47167;SDS011;32931;47.778;17.806;2023-02-18T14:39:24;0.70;;;0.45;;
47167;SDS011;32931;47.778;17.806;2023-02-18T14:44:51;2.78;;;0.63;;
47167;SDS011;32931;47.778;17.806;2023-02-18T14:50:32;3.53;;;1.00;;
47167;SDS011;32931;47.778;17.806;2023-02-18T14:53:04;2.20;;;1.17;;
47167;SDS011;32931;47.778;17.806;2023-02-18T14:55:36;4.32;;;2.50;;
47167;SDS011;32931;47.778;17.806;2023-02-18T14:58:19;0.98;;;0.70;;
47167;SDS011;32931;47.778;17.806;2023-02-18T15:00:51;3.63;;;0.77;;
47167;SDS011;32931;47.778;17.806;2023-02-18T15:03:18;0.85;;;0.60;;
47167;SDS011;32931;47.778;17.806;2023-02-18T15:05:47;1.88;;;0.70;;
47167;SDS011;32931;47.778;17.806;2023-02-18T15:08:18;2.08;;;0.98;;
47167;SDS011;32931;47.778;17.806;2023-02-18T15:13:19;20.27;;;14.38;;
47167;SDS011;32931;47.778;17.806;2023-02-18T15:15:51;27.70;;;17.33;;
47167;SDS011;32931;47.778;17.806;2023-02-18T15:18:29;28.52;;;19.67;;
47167;SDS011;32931;47.778;17.806;2023-02-18T15:21:06;28.08;;;19.67;;
47167;SDS011;32931;47.778;17.806;2023-02-18T15:23:34;29.55;;;20.27;;
47167;SDS011;32931;47.778;17.806;2023-02-18T15:26:02;28.15;;;20.20;;
47167;SDS011;32931;47.778;17.806;2023-02-18T15:28:31;30.52;;;20.30;;
47167;SDS011;32931;47.778;17.806;2023-02-18T15:30:59;31.08;;;20.65;;
47167;SDS011;32931;47.778;17.806;2023-02-18T15:33:26;31.20;;;21.30;;
47167;SDS011;32931;47.778;17.806;2023-02-18T15:36:02;36.30;;;21.38;;
47167;SDS011;32931;47.778;17.806;2023-02-18T15:38:30;34.92;;;20.92;;
47167;SDS011;32931;47.778;17.806;2023-02-18T15:40:57;29.05;;;20.00;;
47167;SDS011;32931;47.778;17.806;2023-02-18T15:43:25;28.85;;;20.20;;
47167;SDS011;32931;47.778;17.806;2023-02-18T15:45:55;27.95;;;19.65;;
47167;SDS011;32931;47.778;17.806;2023-02-18T15:48:28;33.45;;;22.40;;
47167;SDS011;32931;47.778;17.806;2023-02-18T15:51:14;35.50;;;24.20;;
47167;SDS011;32931;47.778;17.806;2023-02-18T15:53:47;38.05;;;25.38;;
47167;SDS011;32931;47.778;17.806;2023-02-18T15:56:20;41.72;;;27.08;;
47167;SDS011;32931;47.778;17.806;2023-02-18T15:59:59;41.47;;;27.40;;
47167;SDS011;32931;47.778;17.806;2023-02-18T16:01:56;42.10;;;28.45;;
47167;SDS011;32931;47.778;17.806;2023-02-18T16:04:31;45.65;;;29.63;;
47167;SDS011;32931;47.778;17.806;2023-02-18T16:06:59;46.38;;;31.15;;
47167;SDS011;32931;47.778;17.806;2023-02-18T16:09:30;43.75;;;30.27;;
47167;SDS011;32931;47.778;17.806;2023-02-18T16:11:59;45.70;;;30.92;;
47167;SDS011;32931;47.778;17.806;2023-02-18T16:14:30;46.47;;;30.60;;
47167;SDS011;32931;47.778;17.806;2023-02-18T16:19:42;49.17;;;31.65;;
47167;SDS011;32931;47.778;17.806;2023-02-18T16:22:31;52.42;;;33.80;;
47167;SDS011;32931;47.778;17.806;2023-02-18T16:25:14;52.28;;;32.90;;
47167;SDS011;32931;47.778;17.806;2023-02-18T16:30:28;60.43;;;35.23;;
47167;SDS011;32931;47.778;17.806;2023-02-18T16:32:57;53.67;;;33.78;;
47167;SDS011;32931;47.778;17.806;2023-02-18T16:35:26;51.80;;;33.55;;
47167;SDS011;32931;47.778;17.806;2023-02-18T16:37:54;59.45;;;35.55;;
47167;SDS011;32931;47.778;17.806;2023-02-18T16:40:40;54.90;;;34.30;;
47167;SDS011;32931;47.778;17.806;2023-02-18T16:43:10;62.28;;;35.40;;
47167;SDS011;32931;47.778;17.806;2023-02-18T16:45:40;52.63;;;33.75;;
47167;SDS011;32931;47.778;17.806;2023-02-18T16:48:19;56.10;;;34.28;;
47167;SDS011;32931;47.778;17.806;2023-02-18T16:50:54;57.67;;;35.85;;
47167;SDS011;32931;47.778;17.806;2023-02-18T16:53:23;56.85;;;34.92;;
47167;SDS011;32931;47.778;17.806;2023-02-18T16:55:50;57.95;;;35.33;;
47167;SDS011;32931;47.778;17.806;2023-02-18T16:58:16;58.72;;;35.90;;
47167;SDS011;32931;47.778;17.806;2023-02-18T17:00:42;64.05;;;37.50;;
47167;SDS011;32931;47.778;17.806;2023-02-18T17:03:10;64.53;;;36.53;;
47167;SDS011;32931;47.778;17.806;2023-02-18T17:05:37;57.20;;;37.03;;
47167;SDS011;32931;47.778;17.806;2023-02-18T17:10:46;68.50;;;39.42;;
47167;SDS011;32931;47.778;17.806;2023-02-18T17:13:14;66.38;;;39.63;;
47167;SDS011;32931;47.778;17.806;2023-02-18T17:15:41;69.22;;;39.00;;
47167;SDS011;32931;47.778;17.806;2023-02-18T17:18:09;67.28;;;41.03;;
47167;SDS011;32931;47.778;17.806;2023-02-18T17:20:36;70.38;;;41.53;;
47167;SDS011;32931;47.778;17.806;2023-02-18T17:23:02;69.28;;;41.67;;
47167;SDS011;32931;47.778;17.806;2023-02-18T17:25:35;70.18;;;43.17;;
47167;SDS011;32931;47.778;17.806;2023-02-18T17:28:03;74.80;;;42.65;;
47167;SDS011;32931;47.778;17.806;2023-02-18T17:30:31;75.72;;;45.03;;
47167;SDS011;32931;47.778;17.806;2023-02-18T17:33:01;79.78;;;45.38;;
47167;SDS011;32931;47.778;17.806;2023-02-18T17:35:28;82.68;;;46.50;;
47167;SDS011;32931;47.778;17.806;2023-02-18T17:37:54;77.45;;;45.47;;